createdAt,value
2023-01-13T00:00:20.711Z,6.47
2023-01-13T00:02:47.964Z,6.38
2023-01-13T00:05:16.140Z,6.45
2023-01-13T00:07:43.687Z,5.65
2023-01-13T00:10:11.641Z,5.85
2023-01-13T00:12:44.764Z,6.40
2023-01-13T00:15:13.704Z,6.90
2023-01-13T00:17:40.772Z,6.70
2023-01-13T00:20:09.454Z,6.00
2023-01-13T00:22:36.616Z,5.70
2023-01-13T00:25:04.746Z,5.50
2023-01-13T00:27:32.031Z,5.07
2023-01-13T00:29:59.607Z,6.28
2023-01-13T00:32:27.357Z,7.82
2023-01-13T00:34:54.528Z,7.10
2023-01-13T00:37:22.207Z,7.43
2023-01-13T00:39:50.751Z,6.28
2023-01-13T00:42:36.780Z,6.97
2023-01-13T00:45:05.155Z,6.35
2023-01-13T00:47:32.257Z,7.00
2023-01-13T00:49:59.297Z,7.13
2023-01-13T00:52:27.289Z,6.93
2023-01-13T00:54:54.352Z,7.05
2023-01-13T00:57:21.820Z,6.57
2023-01-13T00:59:49.733Z,5.75
2023-01-13T01:02:16.913Z,6.05
2023-01-13T01:04:44.399Z,6.38
2023-01-13T01:07:11.403Z,6.75
2023-01-13T01:09:39.613Z,8.52
2023-01-13T01:12:11.147Z,7.22
2023-01-13T01:14:38.336Z,7.28
2023-01-13T01:17:05.446Z,6.95
2023-01-13T01:19:32.509Z,6.30
2023-01-13T01:21:59.551Z,8.30
2023-01-13T01:24:26.561Z,7.15
2023-01-13T01:26:54.805Z,7.85
2023-01-13T01:29:21.996Z,6.63
2023-01-13T01:31:49.210Z,7.47
2023-01-13T01:34:17.263Z,7.32
2023-01-13T01:36:44.422Z,6.50
2023-01-13T01:39:11.718Z,7.53
2023-01-13T01:41:38.827Z,6.90
2023-01-13T01:44:43.984Z,7.35
2023-01-13T01:47:16.647Z,7.15
2023-01-13T01:49:44.956Z,6.75
2023-01-13T01:52:18.062Z,6.68
2023-01-13T01:54:48.671Z,7.40
2023-01-13T01:57:22.012Z,7.55
2023-01-13T01:59:49.689Z,6.47
2023-01-13T02:02:16.940Z,7.13
2023-01-13T02:04:51.307Z,7.07
2023-01-13T02:07:22.956Z,8.20
2023-01-13T02:09:50.132Z,6.35
2023-01-13T02:12:30.146Z,7.18
2023-01-13T02:15:07.912Z,6.88
2023-01-13T02:18:07.678Z,7.05
2023-01-13T02:21:02.596Z,7.00
2023-01-13T02:24:42.127Z,7.18
2023-01-13T02:27:18.162Z,9.00
2023-01-13T02:31:02.366Z,7.68
2023-01-13T02:33:52.772Z,6.95
2023-01-13T02:36:52.440Z,6.40
2023-01-13T02:39:29.677Z,6.97
2023-01-13T02:42:27.152Z,6.47
2023-01-13T02:45:07.493Z,6.65
2023-01-13T02:47:37.669Z,6.95
2023-01-13T02:50:11.166Z,7.68
2023-01-13T02:52:52.020Z,7.57
2023-01-13T02:55:34.183Z,7.72
2023-01-13T02:58:03.999Z,7.03
2023-01-13T03:00:33.533Z,7.10
2023-01-13T03:03:01.643Z,6.85
2023-01-13T03:05:28.937Z,8.38
2023-01-13T03:08:15.868Z,7.20
2023-01-13T03:11:18.790Z,7.05
2023-01-13T03:14:15.044Z,6.75
2023-01-13T03:17:25.436Z,7.93
2023-01-13T03:20:15.956Z,7.72
2023-01-13T03:23:02.785Z,8.68
2023-01-13T03:25:36.939Z,7.57
2023-01-13T03:28:23.608Z,9.27
2023-01-13T03:30:55.129Z,7.28
2023-01-13T03:33:56.991Z,8.68
2023-01-13T03:36:26.986Z,8.98
2023-01-13T03:39:06.738Z,7.25
2023-01-13T03:41:43.594Z,6.97
2023-01-13T03:44:23.389Z,7.30
2023-01-13T03:47:27.695Z,7.85
2023-01-13T03:50:10.442Z,6.55
2023-01-13T03:52:47.883Z,7.28
2023-01-13T03:55:18.811Z,7.40
2023-01-13T03:58:02.634Z,7.10
2023-01-13T04:00:55.625Z,7.47
2023-01-13T04:03:36.104Z,7.95
2023-01-13T04:06:47.982Z,6.93
2023-01-13T04:09:24.183Z,8.02
2023-01-13T04:12:17.108Z,6.72
2023-01-13T04:14:44.455Z,7.60
2023-01-13T04:17:11.690Z,7.43
2023-01-13T04:19:38.746Z,6.18
2023-01-13T04:22:05.779Z,6.45
2023-01-13T04:24:32.809Z,7.88
2023-01-13T04:26:59.795Z,7.45
2023-01-13T04:29:27.259Z,7.75
2023-01-13T04:31:54.311Z,6.90
2023-01-13T04:34:21.493Z,5.72
2023-01-13T04:36:48.517Z,5.78
2023-01-13T04:39:15.499Z,5.97
2023-01-13T04:41:57.829Z,7.40
2023-01-13T04:44:25.259Z,6.93
2023-01-13T06:02:15.385Z,3.65
2023-01-13T06:04:42.476Z,4.30
2023-01-13T06:07:09.480Z,4.15
2023-01-13T06:09:39.050Z,4.68
2023-01-13T06:12:06.681Z,3.22
2023-01-13T06:14:40.183Z,3.75
2023-01-13T06:17:12.946Z,4.50
2023-01-13T06:19:40.780Z,4.30
2023-01-13T06:22:19.330Z,3.88
2023-01-13T06:24:46.538Z,3.78
2023-01-13T06:27:13.788Z,4.00
2023-01-13T06:29:41.359Z,3.85
2023-01-13T06:32:24.515Z,3.83
2023-01-13T06:35:00.661Z,4.30
2023-01-13T06:37:28.160Z,4.60
2023-01-13T06:39:58.641Z,4.35
2023-01-13T06:42:46.537Z,4.38
2023-01-13T06:45:13.640Z,5.47
2023-01-13T06:47:40.936Z,4.22
2023-01-13T06:50:08.673Z,4.25
2023-01-13T06:52:35.737Z,4.13
2023-01-13T06:55:03.330Z,4.70
2023-01-13T06:57:30.296Z,4.55
2023-01-13T06:59:57.444Z,4.15
2023-01-13T07:02:24.511Z,3.92
2023-01-13T07:04:51.869Z,5.45
2023-01-13T07:07:18.926Z,4.72
2023-01-13T07:09:45.950Z,5.78
2023-01-13T07:12:12.975Z,4.63
2023-01-13T07:14:58.857Z,4.68
2023-01-13T07:17:25.906Z,4.50
2023-01-13T07:19:53.424Z,4.25
2023-01-13T07:22:20.947Z,5.13
2023-01-13T07:24:47.938Z,3.75
2023-01-13T07:27:14.905Z,4.57
2023-01-13T07:29:41.964Z,4.35
2023-01-13T07:32:08.981Z,4.20
2023-01-13T07:34:36.673Z,4.15
2023-01-13T07:37:03.704Z,4.47
2023-01-13T07:39:30.693Z,4.97
2023-01-13T07:42:16.644Z,4.78
2023-01-13T07:44:43.722Z,4.82
2023-01-13T07:47:13.209Z,5.07
2023-01-13T07:49:40.314Z,6.13
2023-01-13T07:52:07.423Z,4.97
2023-01-13T07:54:40.723Z,4.53
2023-01-13T07:57:09.035Z,4.75
2023-01-13T07:59:36.027Z,6.20
2023-01-13T08:02:03.550Z,4.93
2023-01-13T08:04:30.616Z,5.40
2023-01-13T08:06:57.746Z,4.88
2023-01-13T08:09:24.733Z,5.63
2023-01-13T08:12:14.643Z,4.80
2023-01-13T08:14:41.812Z,4.05
2023-01-13T08:17:09.545Z,5.85
2023-01-13T08:19:36.832Z,4.78
2023-01-13T08:22:03.906Z,5.10
2023-01-13T08:24:30.871Z,5.75
2023-01-13T08:26:57.887Z,5.78
2023-01-13T08:29:24.865Z,5.50
2023-01-13T08:31:51.843Z,6.10
2023-01-13T08:34:18.821Z,6.32
2023-01-13T08:36:45.799Z,4.70
2023-01-13T08:39:12.749Z,5.28
2023-01-13T08:41:58.868Z,5.47
2023-01-13T08:44:32.817Z,6.05
2023-01-13T08:47:00.078Z,4.80
2023-01-13T08:49:27.503Z,6.07
2023-01-13T08:51:54.605Z,5.25
2023-01-13T08:54:21.881Z,5.53
2023-01-13T08:56:48.982Z,5.03
2023-01-13T08:59:18.862Z,4.78
2023-01-13T09:01:46.077Z,5.85
2023-01-13T09:04:29.549Z,6.13
2023-01-13T09:06:57.219Z,5.93
2023-01-13T09:09:27.693Z,4.90
2023-01-13T09:12:13.407Z,4.63
2023-01-13T09:14:40.635Z,5.60
2023-01-13T09:17:08.014Z,4.68
2023-01-13T09:19:35.548Z,5.93
2023-01-13T09:22:02.923Z,6.05
2023-01-13T09:24:30.329Z,3.85
2023-01-13T09:26:57.482Z,4.80
2023-01-13T09:29:24.568Z,6.20
2023-01-13T09:31:51.754Z,4.65
2023-01-13T09:34:38.974Z,5.10
2023-01-13T09:37:07.724Z,6.47
2023-01-13T09:39:36.254Z,4.97
2023-01-13T09:42:55.918Z,5.82
2023-01-13T09:45:46.904Z,5.65
2023-01-13T09:48:28.854Z,6.82
2023-01-13T09:53:51.530Z,6.85
2023-01-13T09:56:18.507Z,5.75
2023-01-13T09:58:45.988Z,5.90
2023-01-13T10:01:36.727Z,6.60
2023-01-13T10:04:09.531Z,5.75
2023-01-13T10:06:42.211Z,5.53
2023-01-13T10:09:18.936Z,4.82
2023-01-13T10:12:06.850Z,6.65
2023-01-13T10:14:45.986Z,5.70
2023-01-13T10:17:43.179Z,5.45
2023-01-13T10:20:35.811Z,4.55
2023-01-13T10:23:42.505Z,5.47
2023-01-13T10:26:52.648Z,5.28
2023-01-13T10:29:30.458Z,6.00
2023-01-13T10:31:59.321Z,6.28
2023-01-13T10:34:27.907Z,4.75
2023-01-13T10:37:01.333Z,5.38
2023-01-13T10:39:29.578Z,6.10
2023-01-13T10:42:04.836Z,5.47
2023-01-13T10:44:32.062Z,6.38
2023-01-13T10:47:00.043Z,5.28
2023-01-13T10:49:36.756Z,4.53
2023-01-13T10:52:06.139Z,4.93
2023-01-13T10:54:33.513Z,4.70
2023-01-13T10:57:20.120Z,4.82
2023-01-13T10:59:48.317Z,5.82
2023-01-13T11:02:26.222Z,4.80
2023-01-13T11:04:53.559Z,4.25
2023-01-13T11:07:39.428Z,4.55
2023-01-13T11:10:09.485Z,3.67
2023-01-13T11:13:11.575Z,4.78
2023-01-13T11:18:26.998Z,5.05
2023-01-13T11:20:55.703Z,6.10
2023-01-13T11:23:37.586Z,4.30
2023-01-13T11:29:05.912Z,4.68
2023-01-13T11:31:49.879Z,4.13
2023-01-13T11:34:35.712Z,4.53
2023-01-13T11:37:09.960Z,4.10
2023-01-13T11:40:12.381Z,3.65
2023-01-13T11:43:11.820Z,4.63
2023-01-13T11:45:47.059Z,5.38
2023-01-13T11:48:26.951Z,4.50
2023-01-13T11:51:10.399Z,4.10
2023-01-13T11:54:27.579Z,4.22
2023-01-13T11:57:03.737Z,3.05
2023-01-13T12:00:04.605Z,4.35
2023-01-13T12:03:17.338Z,4.18
2023-01-13T12:06:07.126Z,4.10
2023-01-13T12:08:53.528Z,4.20
2023-01-13T12:12:10.893Z,3.30
2023-01-13T13:08:27.668Z,3.38
2023-01-13T13:11:32.228Z,4.25
2023-01-13T13:14:10.965Z,3.05
2023-01-13T13:16:53.901Z,3.05
2023-01-13T13:19:21.362Z,3.20
2023-01-13T13:22:06.885Z,3.25
2023-01-13T13:24:33.928Z,3.30
2023-01-13T13:27:27.066Z,3.40
2023-01-13T13:30:18.611Z,2.83
2023-01-13T13:33:20.088Z,3.85
2023-01-13T13:36:13.705Z,3.95
2023-01-13T13:39:15.876Z,4.65
2023-01-13T13:45:19.691Z,3.17
2023-01-13T13:47:46.858Z,3.15
2023-01-13T13:50:20.952Z,4.72
2023-01-13T13:52:55.827Z,4.15
2023-01-13T13:55:26.766Z,3.33
2023-01-13T13:57:56.083Z,5.22
2023-01-13T14:00:35.638Z,3.47
2023-01-13T14:03:07.688Z,3.67
2023-01-13T14:05:36.644Z,2.90
2023-01-13T14:08:14.946Z,4.05
2023-01-13T14:10:44.980Z,3.50
2023-01-13T14:13:27.710Z,4.53
2023-01-13T14:16:00.166Z,4.40
2023-01-13T14:18:29.242Z,4.65
2023-01-13T14:21:17.548Z,4.30
2023-01-13T14:24:16.545Z,3.95
2023-01-13T14:26:43.589Z,3.80
2023-01-13T14:29:16.543Z,4.53
2023-01-13T14:31:44.180Z,3.50
2023-01-13T14:34:31.093Z,3.78
2023-01-13T14:36:59.005Z,3.80
2023-01-13T14:39:40.674Z,3.40
2023-01-13T14:42:14.290Z,2.80
2023-01-13T14:44:49.531Z,3.85
2023-01-13T14:47:29.123Z,3.58
2023-01-13T14:50:04.989Z,3.33
2023-01-13T14:52:57.087Z,4.38
2023-01-13T14:55:33.831Z,3.75
2023-01-13T14:58:22.584Z,3.88
2023-01-13T15:00:51.506Z,4.43
2023-01-13T15:03:21.022Z,3.72
2023-01-13T15:05:53.228Z,3.80
2023-01-13T15:08:33.972Z,4.00
2023-01-13T15:11:07.142Z,3.55
2023-01-13T15:13:53.129Z,3.72
2023-01-13T15:16:28.303Z,4.72
2023-01-13T15:18:59.375Z,3.55
2023-01-13T15:21:26.688Z,4.38
2023-01-13T15:23:53.724Z,4.55
2023-01-13T15:26:27.554Z,3.97
2023-01-13T15:28:57.409Z,3.67
2023-01-13T15:31:26.048Z,3.50
2023-01-13T15:33:53.343Z,4.22
2023-01-13T15:36:27.894Z,5.07
2023-01-13T15:38:57.823Z,4.18
2023-01-13T15:41:43.996Z,4.63
2023-01-13T15:44:31.023Z,3.90
2023-01-13T15:47:03.521Z,4.72
2023-01-13T15:49:39.593Z,4.25
2023-01-13T15:52:22.492Z,5.38
2023-01-13T15:54:50.861Z,5.15
2023-01-13T15:57:27.522Z,4.50
2023-01-13T16:00:01.775Z,5.50
2023-01-13T16:02:29.854Z,4.95
2023-01-13T16:04:57.214Z,4.20
2023-01-13T16:07:25.523Z,4.15
2023-01-13T16:09:52.709Z,6.15
2023-01-13T16:12:19.750Z,4.72
2023-01-13T16:14:46.806Z,5.55
2023-01-13T16:17:25.422Z,4.97
2023-01-13T16:19:52.519Z,5.00
2023-01-13T16:22:19.683Z,6.25
2023-01-13T16:24:46.807Z,4.57
2023-01-13T16:27:19.680Z,4.00
2023-01-13T16:29:47.591Z,5.93
2023-01-13T16:32:15.259Z,5.40
2023-01-13T16:34:42.432Z,7.43
2023-01-13T16:37:28.290Z,5.60
2023-01-13T16:39:55.686Z,4.75
2023-01-13T16:42:22.789Z,4.88
2023-01-13T16:44:50.829Z,5.07
2023-01-13T16:47:18.852Z,5.05
2023-01-13T16:49:46.344Z,4.68
2023-01-13T16:52:13.410Z,4.55
2023-01-13T16:54:40.389Z,3.83
2023-01-13T16:57:07.932Z,4.50
2023-01-13T16:59:34.995Z,3.97
2023-01-13T17:02:02.323Z,5.28
2023-01-13T17:04:29.390Z,4.78
2023-01-13T17:07:08.235Z,4.70
2023-01-13T17:09:35.585Z,3.72
2023-01-13T17:12:02.653Z,3.42
2023-01-13T17:14:29.648Z,4.10
2023-01-13T17:16:59.680Z,3.88
2023-01-13T17:19:26.886Z,3.50
2023-01-13T17:21:53.971Z,4.75
2023-01-13T17:24:21.527Z,3.75
2023-01-13T17:26:51.031Z,4.65
2023-01-13T17:29:25.443Z,4.03
2023-01-13T17:31:53.051Z,4.68
2023-01-13T17:34:21.423Z,4.25
2023-01-13T17:36:48.757Z,4.57
2023-01-13T17:39:22.263Z,4.78
2023-01-13T17:41:49.830Z,5.28
2023-01-13T17:44:18.913Z,4.07
2023-01-13T17:46:46.700Z,4.47
2023-01-13T17:49:15.757Z,4.22
2023-01-13T17:51:42.948Z,3.72
2023-01-13T17:54:12.511Z,3.92
2023-01-13T17:56:41.103Z,4.18
2023-01-13T17:59:10.564Z,4.22
2023-01-13T18:01:38.627Z,5.63
2023-01-13T18:04:06.973Z,4.97
2023-01-13T18:06:34.272Z,5.10
2023-01-13T18:09:01.662Z,5.43
2023-01-13T18:11:28.768Z,4.22
2023-01-13T18:14:00.338Z,5.03
2023-01-13T18:16:29.775Z,4.57
2023-01-13T18:19:16.675Z,4.03
2023-01-13T18:22:02.638Z,3.95
2023-01-13T18:24:48.484Z,4.03
2023-01-13T18:27:23.068Z,3.67
2023-01-13T18:30:01.466Z,3.85
2023-01-13T18:32:33.046Z,5.47
2023-01-13T18:37:42.205Z,3.25
2023-01-13T18:40:12.259Z,3.53
2023-01-13T18:42:51.715Z,3.40
2023-01-13T18:45:22.111Z,2.85
2023-01-13T18:47:49.422Z,3.25
2023-01-13T18:50:17.582Z,3.22
2023-01-13T18:52:44.699Z,3.22
2023-01-13T18:55:11.747Z,3.80
2023-01-13T18:57:41.747Z,2.30
2023-01-13T19:00:13.449Z,2.45
2023-01-13T19:05:07.881Z,2.83
2023-01-13T19:07:36.040Z,2.85
2023-01-13T19:10:05.685Z,3.72
2023-01-13T19:12:33.848Z,2.90
2023-01-13T19:15:02.187Z,3.80
2023-01-13T19:17:33.640Z,4.00
2023-01-13T19:20:01.060Z,4.82
2023-01-13T19:22:32.798Z,5.20
2023-01-13T19:27:28.813Z,3.95
2023-01-13T19:30:00.983Z,4.90
2023-01-13T19:32:30.789Z,4.13
2023-01-13T19:34:59.744Z,4.90
2023-01-13T19:37:30.534Z,5.10
2023-01-13T19:39:59.252Z,5.03
2023-01-13T19:42:45.798Z,4.90
2023-01-13T19:45:31.072Z,5.13
2023-01-13T19:48:01.874Z,3.58
2023-01-13T19:50:29.264Z,4.37
2023-01-13T19:52:56.690Z,3.58
2023-01-13T19:55:23.711Z,3.63
2023-01-13T19:57:51.019Z,4.20
2023-01-13T20:00:21.037Z,4.57
2023-01-13T20:02:49.921Z,3.75
2023-01-13T20:05:21.503Z,3.75
2023-01-13T20:07:50.124Z,3.60
2023-01-13T20:10:19.654Z,4.28
2023-01-13T20:12:46.697Z,3.90
2023-01-13T20:15:14.141Z,3.20
2023-01-13T20:17:41.700Z,4.00
2023-01-13T20:20:10.677Z,3.33
2023-01-13T20:22:39.389Z,3.72
2023-01-13T20:25:07.937Z,3.00
2023-01-13T20:27:34.995Z,4.18
2023-01-13T20:30:02.063Z,3.67
2023-01-13T20:32:29.038Z,3.58
2023-01-13T20:34:56.021Z,3.90
2023-01-13T20:37:23.039Z,4.95
2023-01-13T20:39:50.017Z,5.78
2023-01-13T20:44:58.062Z,5.05
2023-01-13T20:47:29.429Z,4.78
2023-01-13T20:49:56.829Z,4.73
2023-01-13T20:52:24.011Z,5.05
2023-01-13T20:54:54.214Z,3.85
2023-01-13T20:57:21.309Z,4.47
2023-01-13T20:59:48.431Z,3.90
2023-01-13T21:02:16.570Z,4.50
2023-01-13T21:04:44.080Z,3.80
2023-01-13T21:07:11.441Z,4.10
2023-01-13T21:09:38.471Z,4.53
2023-01-13T21:12:24.967Z,4.57
2023-01-13T21:15:10.711Z,4.93
2023-01-13T21:17:56.707Z,5.22
2023-01-13T21:20:23.763Z,4.70
2023-01-13T21:22:51.200Z,4.80
2023-01-13T21:25:19.592Z,5.25
2023-01-13T21:27:46.691Z,4.40
2023-01-13T21:30:15.860Z,5.13
2023-01-13T21:32:44.727Z,4.78
2023-01-13T21:35:13.375Z,4.28
2023-01-13T21:37:41.974Z,4.10
2023-01-13T21:40:12.117Z,4.28
2023-01-13T21:42:57.945Z,5.25
2023-01-13T21:45:46.525Z,4.78
2023-01-13T21:48:13.614Z,4.05
2023-01-13T21:50:40.900Z,3.90
2023-01-13T21:53:08.296Z,4.13
2023-01-13T21:55:37.052Z,4.07
2023-01-13T21:58:11.652Z,3.90
2023-01-13T22:00:40.849Z,4.97
2023-01-13T22:03:09.458Z,5.30
2023-01-13T22:05:37.048Z,3.83
2023-01-13T22:08:04.830Z,4.95
2023-01-13T22:10:32.226Z,5.05
2023-01-13T22:13:21.853Z,4.38
2023-01-13T22:15:48.891Z,4.45
2023-01-13T22:18:18.054Z,4.85
2023-01-13T22:20:45.405Z,4.35
2023-01-13T22:23:12.603Z,4.72
2023-01-13T22:25:39.724Z,4.70
2023-01-13T22:28:09.145Z,5.20
2023-01-13T22:30:36.167Z,5.30
2023-01-13T22:33:03.244Z,5.00
2023-01-13T22:35:30.298Z,4.55
2023-01-13T22:37:58.234Z,4.18
2023-01-13T22:40:25.592Z,3.80
2023-01-13T22:42:52.570Z,3.97
2023-01-13T22:45:19.675Z,4.90
2023-01-13T22:47:46.907Z,5.55
2023-01-13T22:50:13.931Z,3.90
2023-01-13T22:52:40.876Z,4.07
2023-01-13T22:55:08.632Z,5.38
2023-01-13T22:57:46.739Z,4.03
2023-01-13T23:00:18.766Z,4.38
2023-01-13T23:02:45.982Z,3.90
2023-01-13T23:05:13.898Z,4.00
2023-01-13T23:07:41.223Z,4.38
2023-01-13T23:10:09.135Z,4.85
2023-01-13T23:12:36.135Z,4.22
2023-01-13T23:15:04.045Z,3.47
2023-01-13T23:17:31.202Z,5.15
2023-01-13T23:19:58.269Z,4.78
2023-01-13T23:22:25.566Z,3.72
2023-01-13T23:24:52.679Z,3.92
2023-01-13T23:27:19.812Z,3.85
2023-01-13T23:29:46.831Z,5.53
2023-01-13T23:32:13.868Z,3.65
2023-01-13T23:34:40.912Z,3.55
2023-01-13T23:37:07.903Z,4.18
2023-01-13T23:39:34.893Z,4.53
2023-01-13T23:42:01.958Z,4.47
2023-01-13T23:44:29.551Z,4.72
2023-01-13T23:46:56.744Z,3.58
2023-01-13T23:49:23.715Z,4.03
2023-01-13T23:51:51.679Z,3.78
2023-01-13T23:54:19.373Z,4.40
2023-01-13T23:56:46.364Z,4.20
2023-01-13T23:59:13.333Z,4.38
